Startpagina
METAR-TAF:

METAR-TAF

Vliegvelden :

Honiara, Guadalcanal, Salomonseilanden

Honiara International Airport

breedte: 09-25S, lengte: 160-03E, hoogte: 8 m

Actueel weer

Dit bericht is 47 minuten geleden gemaakt, om 02:00 UTC
Wind 6 kt uit het noorden
Temperatuur 31°C
Vochtigheid 66%
Druk 1009 hPa
Zicht 10 km of meer
Verspreide wolken op 2000 ft
Weinig wolken op 2100 ft, Cumulonimbus.

METAR: AGGH 250200Z 36006KT 9999 SCT020 FEW021CB 31/24 Q1009

Tijdstip: 13:47 (02:47 UTC)

Verwachting

Dit bericht is 3 uur en het 27 minuten geleden gemaakt, om 23:20 UTC
Verwachting geldig van 25 om 00 UTC tot 25 om 24 UTC
Wind 14 kt uit het oosten
Zicht: 1009 m
Verspreide wolken op 1900 ft
Verspreide wolken op 10000 ft

TAF: AGGH 242320Z 2500/2524 09014KT 9999 SCT019 SCT100 T 31 32 30 27 Q 1010 1008 1007 1009

Waarnemingen en weersverwachtingen van meer dan 4000 vliegvelden (METAR en TAF).

De beschikbare stations zijn de gele en rode punten op de kaart.

Ga met uw muis naar het station om de naam te zien.

Klik dan om waarnemingen en weersverwachtingen te zien.

kaart wijzigen: klik op de groene knoppen met een zwart kruis om in te zoomen, op de groene knop met een streepje om uit te zoomen of op de groene pijlen voor aangrenzende kaarten.


METAR-TAF: